createdAt,value
2023-03-08T00:02:25.757Z,101233.59
2023-03-08T00:05:30.357Z,101210.91
2023-03-08T00:08:34.217Z,101240.69
2023-03-08T00:11:38.308Z,101241.94
2023-03-08T00:14:42.304Z,101256.16
2023-03-08T00:17:47.192Z,101263.00
2023-03-08T00:21:01.217Z,101212.88
2023-03-08T00:24:06.033Z,101238.94
2023-03-08T00:27:09.995Z,101273.09
2023-03-08T00:30:14.562Z,101231.75
2023-03-08T00:33:18.821Z,101277.47
2023-03-08T00:36:23.626Z,101280.53
2023-03-08T00:39:27.710Z,101282.69
2023-03-08T00:42:36.783Z,101302.88
2023-03-08T00:45:41.002Z,101298.56
2023-03-08T00:48:45.865Z,101275.28
2023-03-08T00:51:52.053Z,101290.53
2023-03-08T00:54:56.225Z,101294.47
2023-03-08T00:58:01.745Z,101318.16
2023-03-08T01:01:09.644Z,101317.38
2023-03-08T01:04:14.214Z,101293.19
2023-03-08T01:07:17.938Z,101328.63
2023-03-08T01:10:21.977Z,101323.25
2023-03-08T01:13:32.343Z,101259.25
2023-03-08T01:16:36.606Z,101324.28
2023-03-08T01:19:40.611Z,101335.78
2023-03-08T01:22:44.925Z,101334.16
2023-03-08T01:25:48.909Z,101336.75
2023-03-08T01:28:54.070Z,101319.16
2023-03-08T01:31:57.958Z,101344.63
2023-03-08T01:35:05.261Z,101340.28
2023-03-08T01:38:09.536Z,101336.78
2023-03-08T01:41:28.251Z,101349.00
2023-03-08T01:44:55.750Z,101339.38
2023-03-08T01:48:00.387Z,101340.28
2023-03-08T01:51:34.108Z,101367.31
2023-03-08T01:54:41.456Z,101362.28
2023-03-08T01:57:55.148Z,101359.47
2023-03-08T02:00:59.584Z,101358.16
2023-03-08T02:04:04.404Z,101338.53
2023-03-08T02:07:12.887Z,101356.81
2023-03-08T02:10:19.435Z,101353.50
2023-03-08T02:13:25.121Z,101358.50
2023-03-08T02:16:29.963Z,101364.03
2023-03-08T02:19:34.118Z,101362.25
2023-03-08T02:22:43.256Z,101315.47
2023-03-08T02:25:58.058Z,101363.22
2023-03-08T02:29:02.404Z,101318.28
2023-03-08T02:32:06.777Z,101378.06
2023-03-08T02:35:13.754Z,101382.53
2023-03-08T02:38:19.912Z,101376.41
2023-03-08T02:41:24.166Z,101380.56
2023-03-08T02:44:31.350Z,101375.44
2023-03-08T02:47:36.054Z,101378.19
2023-03-08T02:50:40.394Z,101378.19
2023-03-08T02:53:45.147Z,101366.63
2023-03-08T02:56:49.196Z,101367.91
2023-03-08T02:59:53.439Z,101376.84
2023-03-08T03:02:57.504Z,101376.25
2023-03-08T03:06:03.409Z,101356.16
2023-03-08T03:09:11.511Z,101381.97
2023-03-08T03:12:15.755Z,101381.69
2023-03-08T03:15:20.901Z,101382.59
2023-03-08T03:18:29.378Z,101392.28
2023-03-08T03:21:33.471Z,101387.09
2023-03-08T03:24:37.627Z,101385.69
2023-03-08T03:27:44.019Z,101393.16
2023-03-08T03:30:49.863Z,101376.94
2023-03-08T03:33:55.075Z,101392.84
2023-03-08T03:37:02.201Z,101406.88
2023-03-08T03:40:07.157Z,101410.09
2023-03-08T03:43:11.650Z,101416.56
2023-03-08T03:46:18.707Z,101404.53
2023-03-08T03:49:26.625Z,101396.94
2023-03-08T03:52:30.944Z,101411.38
2023-03-08T03:55:39.511Z,101419.75
2023-03-08T03:58:44.780Z,101408.69
2023-03-08T04:01:50.687Z,101398.81
2023-03-08T04:05:02.334Z,101423.09
2023-03-08T04:08:10.985Z,101397.63
2023-03-08T04:11:21.549Z,101424.56
2023-03-08T04:14:26.183Z,101411.22
2023-03-08T04:17:31.226Z,101353.44
2023-03-08T04:20:35.277Z,101420.97
2023-03-08T04:23:41.892Z,101430.56
2023-03-08T04:26:46.120Z,101425.38
2023-03-08T04:29:54.544Z,101414.59
2023-03-08T04:32:59.977Z,101438.47
2023-03-08T04:36:12.769Z,101413.31
2023-03-08T04:39:16.976Z,101402.69
2023-03-08T04:42:21.971Z,101416.75
2023-03-08T04:45:27.265Z,101407.97
2023-03-08T04:48:34.595Z,101437.00
2023-03-08T04:51:39.754Z,101415.34
2023-03-08T04:54:45.741Z,101428.22
2023-03-08T04:58:01.761Z,101443.06
2023-03-08T05:01:23.824Z,101427.56
2023-03-08T05:04:29.654Z,101415.50
2023-03-08T05:07:33.534Z,101420.59
2023-03-08T05:10:39.526Z,101435.81
2023-03-08T05:13:44.124Z,101428.47
2023-03-08T05:16:49.117Z,101432.44
2023-03-08T05:19:53.706Z,101434.91
2023-03-08T05:23:04.111Z,101401.91
2023-03-08T05:26:17.018Z,101405.41
2023-03-08T05:29:21.888Z,101423.94
2023-03-08T05:32:25.956Z,101413.91
2023-03-08T05:35:30.191Z,101409.03
2023-03-08T05:38:35.745Z,101432.66
2023-03-08T05:41:43.468Z,101439.66
2023-03-08T05:44:49.831Z,101429.78
2023-03-08T05:47:59.280Z,101448.28
2023-03-08T05:51:16.990Z,101432.47
2023-03-08T05:54:22.328Z,101447.25
2023-03-08T05:57:29.743Z,101456.22
2023-03-08T06:00:37.629Z,101447.22
2023-03-08T06:03:42.348Z,101459.34
2023-03-08T06:06:46.844Z,101463.22
2023-03-08T06:09:52.472Z,101456.88
2023-03-08T06:12:56.343Z,101464.94
2023-03-08T06:16:02.797Z,101474.94
2023-03-08T06:19:08.274Z,101472.19
2023-03-08T06:22:16.622Z,101434.53
2023-03-08T06:25:21.839Z,101480.03
2023-03-08T06:28:28.582Z,101470.94
2023-03-08T06:31:33.280Z,101472.28
2023-03-08T06:34:39.418Z,101492.03
2023-03-08T06:37:43.802Z,101480.63
2023-03-08T06:40:48.518Z,101485.50
2023-03-08T06:43:52.521Z,101481.66
2023-03-08T06:46:58.118Z,101494.53
2023-03-08T06:50:02.771Z,101499.00
2023-03-08T06:53:07.757Z,101485.69
2023-03-08T06:56:23.198Z,101507.19
2023-03-08T06:59:27.112Z,101503.88
2023-03-08T07:02:30.932Z,101501.94
2023-03-08T07:05:35.158Z,101484.03
2023-03-08T07:08:40.740Z,101512.88
2023-03-08T07:11:44.659Z,101524.72
2023-03-08T07:14:48.913Z,101511.25
2023-03-08T07:17:57.708Z,101530.34
2023-03-08T07:21:02.270Z,101508.47
2023-03-08T07:24:06.598Z,101491.91
2023-03-08T07:27:10.821Z,101515.78
2023-03-08T07:30:16.929Z,101540.91
2023-03-08T07:33:22.758Z,101555.53
2023-03-08T07:36:26.794Z,101512.75
2023-03-08T07:39:30.861Z,101526.44
2023-03-08T07:42:34.861Z,101521.38
2023-03-08T07:45:49.964Z,101493.88
2023-03-08T07:48:55.421Z,101525.47
2023-03-08T07:51:59.828Z,101535.44
2023-03-08T07:55:03.955Z,101521.81
2023-03-08T07:58:08.400Z,101514.56
2023-03-08T08:01:14.780Z,101539.91
2023-03-08T08:04:20.655Z,101518.34
2023-03-08T08:07:25.899Z,101545.53
2023-03-08T08:10:31.154Z,101544.50
2023-03-08T08:13:35.220Z,101553.44
2023-03-08T08:16:40.538Z,101551.63
2023-03-08T08:19:44.476Z,101518.75
2023-03-08T08:22:50.744Z,101547.91
2023-03-08T08:25:55.532Z,101541.50
2023-03-08T08:28:59.642Z,101560.84
2023-03-08T08:32:05.062Z,101566.19
2023-03-08T08:35:09.803Z,101498.97
2023-03-08T08:38:13.813Z,101551.00
2023-03-08T08:41:56.037Z,101557.59
2023-03-08T08:44:59.977Z,101578.16
2023-03-08T08:48:04.560Z,101574.25
2023-03-08T08:51:09.998Z,101578.88
2023-03-08T08:54:14.039Z,101581.53
2023-03-08T08:57:18.164Z,101580.28
2023-03-08T09:00:22.002Z,101578.06
2023-03-08T09:03:26.686Z,101578.00
2023-03-08T09:06:31.746Z,101583.91
2023-03-08T09:09:36.016Z,101584.56
2023-03-08T09:12:40.302Z,101569.28
2023-03-08T09:15:44.613Z,101578.81
2023-03-08T09:18:48.918Z,101559.91
2023-03-08T09:21:52.797Z,101562.03
2023-03-08T09:24:57.003Z,101577.13
2023-03-08T09:28:01.679Z,101568.03
2023-03-08T09:31:17.517Z,101570.03
2023-03-08T09:34:21.571Z,101577.09
2023-03-08T09:37:25.565Z,101585.81
2023-03-08T09:40:38.557Z,101593.88
2023-03-08T09:43:59.740Z,101601.16
2023-03-08T09:47:12.028Z,101599.72
2023-03-08T09:50:16.731Z,101604.78
2023-03-08T09:53:42.315Z,101608.72
2023-03-08T09:56:57.148Z,101620.31
2023-03-08T10:00:09.776Z,101623.25
2023-03-08T10:03:36.553Z,101631.03
2023-03-08T10:07:11.876Z,101637.69
2023-03-08T10:10:50.345Z,101639.97
2023-03-08T10:13:59.396Z,101633.97
2023-03-08T10:17:12.955Z,101630.84
2023-03-08T10:20:32.873Z,101635.09
2023-03-08T10:23:41.570Z,101630.38
2023-03-08T10:26:46.442Z,101625.56
2023-03-08T10:29:52.903Z,101549.63
2023-03-08T10:33:00.704Z,101628.09
2023-03-08T10:36:20.110Z,101624.41
2023-03-08T10:39:24.044Z,101640.22
2023-03-08T10:42:30.122Z,101642.53
2023-03-08T10:45:34.433Z,101634.94
2023-03-08T10:48:39.008Z,101363.88
2023-03-08T10:51:56.349Z,101650.81
2023-03-08T10:55:45.615Z,101656.13
2023-03-08T11:03:17.583Z,101638.47
2023-03-08T11:06:25.980Z,101637.31
2023-03-08T11:09:34.441Z,101646.69
2023-03-08T11:12:38.858Z,101637.19
2023-03-08T11:15:49.713Z,101641.78
2023-03-08T11:19:06.974Z,101647.84
2023-03-08T11:22:28.084Z,101642.75
2023-03-08T11:25:43.939Z,101654.84
2023-03-08T11:29:00.520Z,101655.56
2023-03-08T11:32:34.433Z,101652.94
2023-03-08T11:35:44.787Z,101661.28
2023-03-08T11:38:58.472Z,101648.97
2023-03-08T11:42:16.995Z,101657.97
2023-03-08T11:45:31.041Z,101662.47
2023-03-08T11:48:58.865Z,101660.19
2023-03-08T11:52:53.991Z,101631.91
2023-03-08T11:56:21.578Z,101665.53
2023-03-08T11:59:53.997Z,101657.63
2023-03-08T12:03:05.234Z,101659.81
2023-03-08T12:06:29.188Z,101665.69
2023-03-08T12:10:10.260Z,101565.31
2023-03-08T12:13:34.666Z,101650.94
2023-03-08T12:16:48.584Z,101642.84
2023-03-08T12:19:53.236Z,101629.78
2023-03-08T12:23:15.723Z,101624.19
2023-03-08T12:26:31.345Z,101631.78
2023-03-08T12:29:47.506Z,101644.50
2023-03-08T12:32:58.753Z,101630.56
2023-03-08T12:36:06.318Z,101625.72
2023-03-08T12:39:32.282Z,101629.38
2023-03-08T12:42:39.820Z,101572.06
2023-03-08T12:46:06.389Z,101662.25
2023-03-08T12:49:22.102Z,101601.09
2023-03-08T12:52:35.977Z,101670.16
2023-03-08T12:55:40.212Z,101655.25
2023-03-08T12:58:59.845Z,101620.69
2023-03-08T13:02:26.881Z,101653.66
2023-03-08T13:05:34.989Z,101647.06
2023-03-08T13:08:50.008Z,101613.50
2023-03-08T13:12:10.380Z,101605.91
2023-03-08T13:15:14.580Z,101654.97
2023-03-08T13:18:21.651Z,101628.25
2023-03-08T13:22:12.108Z,101661.09
2023-03-08T13:25:21.966Z,101648.34
2023-03-08T13:28:41.038Z,101636.34
2023-03-08T13:31:51.393Z,101630.56
2023-03-08T13:35:05.516Z,101611.72
2023-03-08T13:38:22.731Z,101605.38
2023-03-08T13:41:40.072Z,101596.84
2023-03-08T13:44:44.328Z,101612.91
2023-03-08T13:47:49.681Z,101610.53
2023-03-08T13:50:54.683Z,101627.19
2023-03-08T13:53:59.206Z,101602.66
2023-03-08T13:57:18.880Z,101641.22
2023-03-08T14:00:35.514Z,101643.19
2023-03-08T14:03:41.389Z,101632.47
2023-03-08T14:06:54.241Z,101642.72
2023-03-08T14:09:59.910Z,101648.19
2023-03-08T14:13:04.449Z,101647.19
2023-03-08T14:16:10.766Z,101589.34
2023-03-08T14:19:23.501Z,101647.81
2023-03-08T14:22:39.402Z,101643.41
2023-03-08T14:25:44.500Z,101649.88
2023-03-08T14:28:48.555Z,101653.09
2023-03-08T14:32:19.924Z,101651.16
2023-03-08T14:35:31.999Z,101637.41
2023-03-08T14:38:37.730Z,101646.84
2023-03-08T14:41:41.467Z,101628.38
2023-03-08T14:45:13.991Z,101629.75
2023-03-08T14:48:26.068Z,101628.19
2023-03-08T14:51:43.134Z,101625.78
2023-03-08T14:54:47.090Z,101637.81
2023-03-08T14:57:53.754Z,101628.38
2023-03-08T15:01:01.769Z,101636.13
2023-03-08T15:04:15.022Z,101643.50
2023-03-08T15:07:22.063Z,101560.66
2023-03-08T15:10:35.448Z,101607.81
2023-03-08T15:13:39.877Z,101558.19
2023-03-08T15:16:44.169Z,101579.78
2023-03-08T15:19:48.255Z,101591.97
2023-03-08T15:23:06.083Z,101564.25
2023-03-08T15:26:15.894Z,101572.22
2023-03-08T15:29:29.299Z,101591.75
2023-03-08T15:32:33.252Z,101584.25
2023-03-08T15:35:39.986Z,101598.25
2023-03-08T15:38:44.585Z,101589.06
2023-03-08T15:41:49.483Z,101595.50
2023-03-08T15:44:53.789Z,101596.97
2023-03-08T15:48:03.418Z,101545.28
2023-03-08T15:51:08.259Z,101598.72
2023-03-08T15:54:13.118Z,101541.50
2023-03-08T15:57:17.456Z,101553.00
2023-03-08T16:00:23.093Z,101563.69
2023-03-08T16:03:31.236Z,101583.00
2023-03-08T16:06:35.805Z,101575.19
2023-03-08T16:09:40.581Z,101554.72
2023-03-08T16:12:44.572Z,101574.41
2023-03-08T16:15:50.090Z,101540.13
2023-03-08T16:18:54.850Z,101546.06
2023-03-08T16:21:58.837Z,101534.38
2023-03-08T16:25:03.455Z,101541.81
2023-03-08T16:28:07.456Z,101501.97
2023-03-08T16:31:12.223Z,101494.13
2023-03-08T16:34:17.018Z,101479.09
2023-03-08T16:37:22.263Z,101538.47
2023-03-08T16:40:31.734Z,101519.63
2023-03-08T16:43:46.415Z,101535.16
2023-03-08T16:46:51.708Z,101538.75
2023-03-08T16:49:55.987Z,101511.22
2023-03-08T16:53:00.108Z,101480.81
2023-03-08T16:56:05.406Z,101514.44
2023-03-08T16:59:12.373Z,101521.94
2023-03-08T17:02:22.329Z,101515.69
2023-03-08T17:05:26.673Z,101519.78
2023-03-08T17:08:31.306Z,101507.53
2023-03-08T17:11:36.511Z,101502.72
2023-03-08T17:14:40.845Z,101482.34
2023-03-08T17:17:45.398Z,101499.13
2023-03-08T17:20:50.336Z,101482.59
2023-03-08T17:23:56.474Z,101500.09
2023-03-08T17:27:01.028Z,101480.72
2023-03-08T17:30:05.604Z,101463.03
2023-03-08T17:33:13.657Z,101479.59
2023-03-08T17:36:19.081Z,101459.13
2023-03-08T17:39:23.813Z,101469.88
2023-03-08T17:42:28.062Z,101387.28
2023-03-08T17:45:32.587Z,101448.09
2023-03-08T17:48:37.408Z,101460.38
2023-03-08T17:51:43.251Z,101449.63
2023-03-08T17:54:49.441Z,101449.03
2023-03-08T17:57:53.601Z,101440.84
2023-03-08T18:00:57.618Z,101426.19
2023-03-08T18:04:02.010Z,101426.66
2023-03-08T18:07:06.773Z,101397.13
2023-03-08T18:10:12.030Z,101395.75
2023-03-08T18:13:16.148Z,101375.94
2023-03-08T18:16:22.129Z,101367.84
2023-03-08T18:19:26.126Z,101361.09
2023-03-08T18:22:30.187Z,101363.28
2023-03-08T18:25:35.648Z,101371.00
2023-03-08T18:28:41.264Z,101347.03
2023-03-08T18:31:45.414Z,101354.56
2023-03-08T18:34:49.381Z,101352.41
2023-03-08T18:37:53.570Z,101318.09
2023-03-08T18:40:57.540Z,101324.56
2023-03-08T18:44:02.376Z,101337.03
2023-03-08T18:47:06.650Z,101327.84
2023-03-08T18:50:12.042Z,101321.66
2023-03-08T18:53:19.268Z,101320.31
2023-03-08T18:56:26.629Z,101310.78
2023-03-08T18:59:30.535Z,101309.63
2023-03-08T19:02:34.940Z,101307.69
2023-03-08T19:05:38.924Z,101303.66
2023-03-08T19:08:43.709Z,101299.28
2023-03-08T19:15:12.060Z,101262.47
2023-03-08T19:18:16.341Z,101241.00
2023-03-08T19:21:32.943Z,101297.91
2023-03-08T19:24:37.102Z,101297.06
2023-03-08T19:27:41.323Z,101278.72
2023-03-08T19:30:45.434Z,101286.44
2023-03-08T19:33:50.636Z,101282.13
2023-03-08T19:36:55.628Z,101276.72
2023-03-08T19:40:01.290Z,101206.78
2023-03-08T19:43:06.448Z,101286.38
2023-03-08T19:46:11.715Z,101280.91
2023-03-08T19:49:19.272Z,101205.06
2023-03-08T19:52:23.786Z,101198.78
2023-03-08T19:55:27.688Z,101221.47
2023-03-08T19:58:32.216Z,101215.94
2023-03-08T20:01:36.612Z,101216.16
2023-03-08T20:04:41.807Z,101217.69
2023-03-08T20:07:46.062Z,101213.09
2023-03-08T20:10:53.340Z,101202.59
2023-03-08T20:13:57.361Z,101231.91
2023-03-08T20:17:02.581Z,101240.41
2023-03-08T20:20:07.269Z,101243.25
2023-03-08T20:23:11.747Z,101244.44
2023-03-08T20:26:15.813Z,101232.91
2023-03-08T20:29:20.526Z,101220.84
2023-03-08T20:32:24.678Z,101218.19
2023-03-08T20:35:29.375Z,101175.41
2023-03-08T20:38:33.619Z,101229.03
2023-03-08T20:41:37.733Z,101234.47
2023-03-08T20:44:41.662Z,101206.41
2023-03-08T20:47:47.382Z,101200.88
2023-03-08T20:50:51.832Z,101215.84
2023-03-08T20:53:56.439Z,101221.44
2023-03-08T20:57:00.600Z,101230.03
2023-03-08T21:00:06.134Z,101226.88
2023-03-08T21:03:10.113Z,101219.94
2023-03-08T21:06:16.851Z,101208.38
2023-03-08T21:09:21.037Z,101212.41
2023-03-08T21:12:25.241Z,101163.09
2023-03-08T21:15:29.516Z,101186.13
2023-03-08T21:18:33.723Z,101177.63
2023-03-08T21:21:40.380Z,101204.09
2023-03-08T21:24:44.537Z,101199.69
2023-03-08T21:27:48.597Z,101144.81
2023-03-08T21:30:53.125Z,101157.34
2023-03-08T21:33:57.629Z,101134.16
2023-03-08T21:37:01.752Z,101167.84
2023-03-08T21:40:07.934Z,101153.09
2023-03-08T21:43:11.971Z,101185.63
2023-03-08T21:46:17.101Z,101149.28
2023-03-08T21:49:24.753Z,101161.94
2023-03-08T21:52:28.632Z,101141.19
2023-03-08T21:55:32.939Z,101172.19
2023-03-08T21:58:37.590Z,101161.81
2023-03-08T22:01:42.689Z,101109.00
2023-03-08T22:04:46.638Z,101165.69
2023-03-08T22:07:50.389Z,101156.03
2023-03-08T22:10:57.511Z,101145.09
2023-03-08T22:14:03.129Z,101173.16
2023-03-08T22:17:07.930Z,101170.13
2023-03-08T22:20:13.185Z,101149.97
2023-03-08T22:23:17.377Z,101161.59
2023-03-08T22:26:22.930Z,101152.56
2023-03-08T22:29:27.260Z,101156.69
2023-03-08T22:32:31.152Z,101159.66
2023-03-08T22:35:36.948Z,101155.94
2023-03-08T22:38:41.956Z,101156.88
2023-03-08T22:41:45.807Z,101151.88
2023-03-08T22:44:49.583Z,101149.28
2023-03-08T22:47:54.243Z,101152.09
2023-03-08T22:51:10.274Z,101156.09
2023-03-08T22:54:21.466Z,101175.47
2023-03-08T22:57:25.384Z,101159.50
2023-03-08T23:00:29.597Z,101118.72
2023-03-08T23:03:34.260Z,101158.53
2023-03-08T23:06:38.226Z,101146.66
2023-03-08T23:09:42.097Z,101154.59
2023-03-08T23:12:46.257Z,101143.72
2023-03-08T23:15:50.471Z,101136.25
2023-03-08T23:18:55.703Z,101136.78
2023-03-08T23:21:59.647Z,101133.97
2023-03-08T23:25:03.947Z,101148.53
2023-03-08T23:28:08.888Z,101131.03
2023-03-08T23:31:19.505Z,101147.03
2023-03-08T23:34:24.078Z,101114.97
2023-03-08T23:37:28.458Z,101147.53
2023-03-08T23:40:32.742Z,101147.13
2023-03-08T23:43:38.106Z,101146.31
2023-03-08T23:46:46.863Z,101144.34
2023-03-08T23:49:52.396Z,101142.63
2023-03-08T23:52:56.562Z,101150.09
2023-03-08T23:56:00.634Z,101149.72
2023-03-08T23:59:09.264Z,101146.28
